sensor_id;sensor_type;location;lat;lon;timestamp;temperature;humidity
42365;DHT22;28498;54.400;18.566;2024-03-02T00:01:10;8.00;99.90
42365;DHT22;28498;54.400;18.566;2024-03-02T00:03:38;8.00;99.90
42365;DHT22;28498;54.400;18.566;2024-03-02T00:06:05;8.00;99.90
42365;DHT22;28498;54.400;18.566;2024-03-02T00:08:33;8.10;99.90
42365;DHT22;28498;54.400;18.566;2024-03-02T00:11:02;8.00;99.90
42365;DHT22;28498;54.400;18.566;2024-03-02T00:13:32;8.10;99.90
42365;DHT22;28498;54.400;18.566;2024-03-02T00:16:00;8.10;99.90
42365;DHT22;28498;54.400;18.566;2024-03-02T00:18:32;8.10;99.90
42365;DHT22;28498;54.400;18.566;2024-03-02T00:21:00;8.10;99.90
42365;DHT22;28498;54.400;18.566;2024-03-02T00:23:30;8.00;99.90
42365;DHT22;28498;54.400;18.566;2024-03-02T00:25:58;8.00;99.90
42365;DHT22;28498;54.400;18.566;2024-03-02T00:28:31;8.00;99.90
42365;DHT22;28498;54.400;18.566;2024-03-02T00:31:06;8.00;99.90
42365;DHT22;28498;54.400;18.566;2024-03-02T00:33:44;8.00;99.90
42365;DHT22;28498;54.400;18.566;2024-03-02T00:36:14;8.00;99.90
42365;DHT22;28498;54.400;18.566;2024-03-02T00:38:49;8.00;99.90
42365;DHT22;28498;54.400;18.566;2024-03-02T00:41:30;8.00;99.90
42365;DHT22;28498;54.400;18.566;2024-03-02T00:44:04;8.00;99.90
42365;DHT22;28498;54.400;18.566;2024-03-02T00:46:40;7.90;99.90
42365;DHT22;28498;54.400;18.566;2024-03-02T00:51:39;7.90;99.90
42365;DHT22;28498;54.400;18.566;2024-03-02T00:54:08;7.90;99.90
42365;DHT22;28498;54.400;18.566;2024-03-02T00:56:36;7.90;99.90
42365;DHT22;28498;54.400;18.566;2024-03-02T00:59:03;7.90;99.90
42365;DHT22;28498;54.400;18.566;2024-03-02T01:01:30;7.90;99.90
42365;DHT22;28498;54.400;18.566;2024-03-02T01:03:58;7.90;99.90
42365;DHT22;28498;54.400;18.566;2024-03-02T01:06:25;7.90;99.90
42365;DHT22;28498;54.400;18.566;2024-03-02T01:08:52;7.90;99.90
42365;DHT22;28498;54.400;18.566;2024-03-02T01:11:20;7.90;99.90
42365;DHT22;28498;54.400;18.566;2024-03-02T01:13:51;7.90;99.90
42365;DHT22;28498;54.400;18.566;2024-03-02T01:16:19;7.90;99.90
42365;DHT22;28498;54.400;18.566;2024-03-02T01:18:46;7.90;99.90
42365;DHT22;28498;54.400;18.566;2024-03-02T01:21:14;7.90;99.90
42365;DHT22;28498;54.400;18.566;2024-03-02T01:23:41;7.90;99.90
42365;DHT22;28498;54.400;18.566;2024-03-02T01:26:08;7.80;99.90
42365;DHT22;28498;54.400;18.566;2024-03-02T01:28:35;7.80;99.90
42365;DHT22;28498;54.400;18.566;2024-03-02T01:31:02;7.80;99.90
42365;DHT22;28498;54.400;18.566;2024-03-02T01:33:29;7.80;99.90
42365;DHT22;28498;54.400;18.566;2024-03-02T01:35:57;7.80;99.90
42365;DHT22;28498;54.400;18.566;2024-03-02T01:38:24;7.80;99.90
42365;DHT22;28498;54.400;18.566;2024-03-02T01:40:51;7.70;99.90
42365;DHT22;28498;54.400;18.566;2024-03-02T01:43:18;8.00;99.90
42365;DHT22;28498;54.400;18.566;2024-03-02T01:45:46;7.70;99.90
42365;DHT22;28498;54.400;18.566;2024-03-02T01:48:13;7.70;99.90
42365;DHT22;28498;54.400;18.566;2024-03-02T01:50:40;7.70;99.90
42365;DHT22;28498;54.400;18.566;2024-03-02T01:53:08;7.70;99.90
42365;DHT22;28498;54.400;18.566;2024-03-02T01:55:36;7.80;99.90
42365;DHT22;28498;54.400;18.566;2024-03-02T01:58:03;7.80;99.90
42365;DHT22;28498;54.400;18.566;2024-03-02T02:00:31;7.80;99.90
42365;DHT22;28498;54.400;18.566;2024-03-02T02:02:59;7.70;99.90
42365;DHT22;28498;54.400;18.566;2024-03-02T02:05:26;7.70;99.90
42365;DHT22;28498;54.400;18.566;2024-03-02T02:07:53;7.70;99.90
42365;DHT22;28498;54.400;18.566;2024-03-02T02:10:20;7.70;99.90
42365;DHT22;28498;54.400;18.566;2024-03-02T02:12:47;7.70;99.90
42365;DHT22;28498;54.400;18.566;2024-03-02T02:15:25;7.70;99.90
42365;DHT22;28498;54.400;18.566;2024-03-02T02:17:57;7.70;99.90
42365;DHT22;28498;54.400;18.566;2024-03-02T02:20:25;7.70;99.90
42365;DHT22;28498;54.400;18.566;2024-03-02T02:23:02;7.70;99.90
42365;DHT22;28498;54.400;18.566;2024-03-02T02:25:30;7.60;99.90
42365;DHT22;28498;54.400;18.566;2024-03-02T02:27:57;7.60;99.90
42365;DHT22;28498;54.400;18.566;2024-03-02T02:30:27;7.60;99.90
42365;DHT22;28498;54.400;18.566;2024-03-02T02:32:55;7.60;99.90
42365;DHT22;28498;54.400;18.566;2024-03-02T02:35:22;7.60;99.90
42365;DHT22;28498;54.400;18.566;2024-03-02T02:37:52;7.50;99.90
42365;DHT22;28498;54.400;18.566;2024-03-02T02:40:20;7.60;99.90
42365;DHT22;28498;54.400;18.566;2024-03-02T02:42:48;7.60;99.90
42365;DHT22;28498;54.400;18.566;2024-03-02T02:45:15;7.60;99.90
42365;DHT22;28498;54.400;18.566;2024-03-02T02:47:43;7.60;99.90
42365;DHT22;28498;54.400;18.566;2024-03-02T02:50:11;7.60;99.90
42365;DHT22;28498;54.400;18.566;2024-03-02T02:52:40;7.60;99.90
42365;DHT22;28498;54.400;18.566;2024-03-02T02:55:09;7.60;99.90
42365;DHT22;28498;54.400;18.566;2024-03-02T02:57:38;7.60;99.90
42365;DHT22;28498;54.400;18.566;2024-03-02T03:00:14;7.50;99.90
42365;DHT22;28498;54.400;18.566;2024-03-02T03:02:46;7.50;99.90
42365;DHT22;28498;54.400;18.566;2024-03-02T03:05:15;7.40;99.90
42365;DHT22;28498;54.400;18.566;2024-03-02T03:07:43;7.40;99.90
42365;DHT22;28498;54.400;18.566;2024-03-02T03:10:11;7.40;99.90
42365;DHT22;28498;54.400;18.566;2024-03-02T03:12:38;7.40;99.90
42365;DHT22;28498;54.400;18.566;2024-03-02T03:15:08;7.40;99.90
42365;DHT22;28498;54.400;18.566;2024-03-02T03:17:36;7.40;99.90
42365;DHT22;28498;54.400;18.566;2024-03-02T03:20:05;7.40;99.90
42365;DHT22;28498;54.400;18.566;2024-03-02T03:22:33;7.40;99.90
42365;DHT22;28498;54.400;18.566;2024-03-02T03:25:00;7.40;99.90
42365;DHT22;28498;54.400;18.566;2024-03-02T03:27:27;7.40;99.90
42365;DHT22;28498;54.400;18.566;2024-03-02T03:29:54;7.40;99.90
42365;DHT22;28498;54.400;18.566;2024-03-02T03:32:22;7.40;99.90
42365;DHT22;28498;54.400;18.566;2024-03-02T03:34:49;7.40;99.90
42365;DHT22;28498;54.400;18.566;2024-03-02T03:37:16;7.30;99.90
42365;DHT22;28498;54.400;18.566;2024-03-02T03:39:43;7.40;99.90
42365;DHT22;28498;54.400;18.566;2024-03-02T03:42:10;7.40;99.90
42365;DHT22;28498;54.400;18.566;2024-03-02T03:44:38;7.30;99.90
42365;DHT22;28498;54.400;18.566;2024-03-02T03:47:06;7.30;99.90
42365;DHT22;28498;54.400;18.566;2024-03-02T03:49:33;7.30;99.90
42365;DHT22;28498;54.400;18.566;2024-03-02T03:52:00;7.30;99.90
42365;DHT22;28498;54.400;18.566;2024-03-02T03:54:27;7.20;99.90
42365;DHT22;28498;54.400;18.566;2024-03-02T03:56:54;7.20;99.90
42365;DHT22;28498;54.400;18.566;2024-03-02T03:59:21;7.20;99.90
42365;DHT22;28498;54.400;18.566;2024-03-02T04:01:48;7.20;99.90
42365;DHT22;28498;54.400;18.566;2024-03-02T04:04:16;7.20;99.90
42365;DHT22;28498;54.400;18.566;2024-03-02T04:06:43;7.20;99.90
42365;DHT22;28498;54.400;18.566;2024-03-02T04:09:11;7.20;99.90
42365;DHT22;28498;54.400;18.566;2024-03-02T04:11:38;7.20;99.90
42365;DHT22;28498;54.400;18.566;2024-03-02T04:14:05;7.20;99.90
42365;DHT22;28498;54.400;18.566;2024-03-02T04:16:33;7.20;99.90
42365;DHT22;28498;54.400;18.566;2024-03-02T04:19:00;7.30;99.90
42365;DHT22;28498;54.400;18.566;2024-03-02T04:21:27;7.30;99.90
42365;DHT22;28498;54.400;18.566;2024-03-02T04:23:54;7.30;99.90
42365;DHT22;28498;54.400;18.566;2024-03-02T04:26:25;7.30;99.90
42365;DHT22;28498;54.400;18.566;2024-03-02T04:28:53;7.30;99.90
42365;DHT22;28498;54.400;18.566;2024-03-02T04:31:21;7.30;99.90
42365;DHT22;28498;54.400;18.566;2024-03-02T04:33:48;7.30;99.90
42365;DHT22;28498;54.400;18.566;2024-03-02T04:36:15;7.30;99.90
42365;DHT22;28498;54.400;18.566;2024-03-02T04:38:42;7.30;99.90
42365;DHT22;28498;54.400;18.566;2024-03-02T04:41:10;7.30;99.90
42365;DHT22;28498;54.400;18.566;2024-03-02T04:43:37;7.30;99.90
42365;DHT22;28498;54.400;18.566;2024-03-02T04:46:05;7.30;99.90
42365;DHT22;28498;54.400;18.566;2024-03-02T04:48:33;7.30;99.90
42365;DHT22;28498;54.400;18.566;2024-03-02T04:51:01;7.30;99.90
42365;DHT22;28498;54.400;18.566;2024-03-02T04:53:28;7.30;99.90
42365;DHT22;28498;54.400;18.566;2024-03-02T04:55:55;7.30;99.90
42365;DHT22;28498;54.400;18.566;2024-03-02T04:58:57;7.30;99.90
42365;DHT22;28498;54.400;18.566;2024-03-02T05:01:24;7.30;99.90
42365;DHT22;28498;54.400;18.566;2024-03-02T05:03:51;7.30;99.90
42365;DHT22;28498;54.400;18.566;2024-03-02T05:06:18;7.30;99.90
42365;DHT22;28498;54.400;18.566;2024-03-02T05:08:45;7.30;99.90
42365;DHT22;28498;54.400;18.566;2024-03-02T05:11:13;7.20;99.90
42365;DHT22;28498;54.400;18.566;2024-03-02T05:14:06;7.30;99.90
42365;DHT22;28498;54.400;18.566;2024-03-02T05:16:36;7.20;99.90
42365;DHT22;28498;54.400;18.566;2024-03-02T05:19:05;7.20;99.90
42365;DHT22;28498;54.400;18.566;2024-03-02T05:21:35;7.20;99.90
42365;DHT22;28498;54.400;18.566;2024-03-02T05:24:02;7.10;99.90
42365;DHT22;28498;54.400;18.566;2024-03-02T05:26:29;7.10;99.90
42365;DHT22;28498;54.400;18.566;2024-03-02T05:28:57;7.10;99.90
42365;DHT22;28498;54.400;18.566;2024-03-02T05:31:24;7.10;99.90
42365;DHT22;28498;54.400;18.566;2024-03-02T05:33:51;7.10;99.90
42365;DHT22;28498;54.400;18.566;2024-03-02T05:36:23;7.00;99.90
42365;DHT22;28498;54.400;18.566;2024-03-02T05:38:51;7.00;99.90
42365;DHT22;28498;54.400;18.566;2024-03-02T05:41:18;6.90;99.90
42365;DHT22;28498;54.400;18.566;2024-03-02T05:43:45;6.90;99.90
42365;DHT22;28498;54.400;18.566;2024-03-02T05:46:12;6.90;99.90
42365;DHT22;28498;54.400;18.566;2024-03-02T05:48:39;6.90;99.90
42365;DHT22;28498;54.400;18.566;2024-03-02T05:51:06;6.90;99.90
42365;DHT22;28498;54.400;18.566;2024-03-02T05:53:33;6.80;99.90
42365;DHT22;28498;54.400;18.566;2024-03-02T05:56:00;6.80;99.90
42365;DHT22;28498;54.400;18.566;2024-03-02T05:58:31;6.80;99.90
42365;DHT22;28498;54.400;18.566;2024-03-02T06:01:19;6.80;99.90
42365;DHT22;28498;54.400;18.566;2024-03-02T06:03:46;6.70;99.90
42365;DHT22;28498;54.400;18.566;2024-03-02T06:06:13;6.80;99.90
42365;DHT22;28498;54.400;18.566;2024-03-02T06:08:40;6.80;99.90
42365;DHT22;28498;54.400;18.566;2024-03-02T06:11:07;6.80;99.90
42365;DHT22;28498;54.400;18.566;2024-03-02T06:13:34;6.80;99.90
42365;DHT22;28498;54.400;18.566;2024-03-02T06:16:01;6.90;99.90
42365;DHT22;28498;54.400;18.566;2024-03-02T06:18:28;6.90;99.90
42365;DHT22;28498;54.400;18.566;2024-03-02T06:20:55;6.90;99.90
42365;DHT22;28498;54.400;18.566;2024-03-02T06:23:22;7.00;99.90
42365;DHT22;28498;54.400;18.566;2024-03-02T06:25:50;7.00;99.90
42365;DHT22;28498;54.400;18.566;2024-03-02T06:28:17;7.00;99.90
42365;DHT22;28498;54.400;18.566;2024-03-02T06:30:44;7.10;99.90
42365;DHT22;28498;54.400;18.566;2024-03-02T06:33:12;7.10;99.90
42365;DHT22;28498;54.400;18.566;2024-03-02T06:35:39;7.20;99.90
42365;DHT22;28498;54.400;18.566;2024-03-02T06:38:06;7.20;99.90
42365;DHT22;28498;54.400;18.566;2024-03-02T06:40:33;7.30;99.90
42365;DHT22;28498;54.400;18.566;2024-03-02T06:43:00;7.30;99.90
42365;DHT22;28498;54.400;18.566;2024-03-02T06:45:28;7.30;99.90
42365;DHT22;28498;54.400;18.566;2024-03-02T06:47:57;7.40;99.90
42365;DHT22;28498;54.400;18.566;2024-03-02T06:50:24;7.40;99.90
42365;DHT22;28498;54.400;18.566;2024-03-02T06:52:52;7.50;99.90
42365;DHT22;28498;54.400;18.566;2024-03-02T06:55:19;7.60;99.90
42365;DHT22;28498;54.400;18.566;2024-03-02T06:57:46;7.70;99.90
42365;DHT22;28498;54.400;18.566;2024-03-02T07:04:00;7.80;99.90
42365;DHT22;28498;54.400;18.566;2024-03-02T07:06:27;7.90;99.90
42365;DHT22;28498;54.400;18.566;2024-03-02T07:08:54;8.00;99.90
42365;DHT22;28498;54.400;18.566;2024-03-02T07:11:21;8.00;99.90
42365;DHT22;28498;54.400;18.566;2024-03-02T07:13:48;8.00;99.90
42365;DHT22;28498;54.400;18.566;2024-03-02T07:16:15;8.10;99.90
42365;DHT22;28498;54.400;18.566;2024-03-02T07:18:55;8.20;99.90
42365;DHT22;28498;54.400;18.566;2024-03-02T07:21:24;8.30;99.90
42365;DHT22;28498;54.400;18.566;2024-03-02T07:23:51;8.40;99.90
42365;DHT22;28498;54.400;18.566;2024-03-02T07:26:18;8.50;99.90
42365;DHT22;28498;54.400;18.566;2024-03-02T07:28:48;8.60;99.90
42365;DHT22;28498;54.400;18.566;2024-03-02T07:31:16;8.60;99.90
42365;DHT22;28498;54.400;18.566;2024-03-02T07:33:45;8.50;99.90
42365;DHT22;28498;54.400;18.566;2024-03-02T07:36:13;8.50;99.90
42365;DHT22;28498;54.400;18.566;2024-03-02T07:38:41;8.50;99.90
42365;DHT22;28498;54.400;18.566;2024-03-02T07:41:09;8.50;99.90
42365;DHT22;28498;54.400;18.566;2024-03-02T07:43:38;8.30;99.90
42365;DHT22;28498;54.400;18.566;2024-03-02T07:46:05;8.20;99.90
42365;DHT22;28498;54.400;18.566;2024-03-02T07:48:32;8.20;99.90
42365;DHT22;28498;54.400;18.566;2024-03-02T07:51:00;8.10;99.90
42365;DHT22;28498;54.400;18.566;2024-03-02T07:53:28;8.10;99.90
42365;DHT22;28498;54.400;18.566;2024-03-02T07:55:56;8.10;99.90
42365;DHT22;28498;54.400;18.566;2024-03-02T07:58:29;8.00;99.90
42365;DHT22;28498;54.400;18.566;2024-03-02T08:00:57;8.00;99.90
42365;DHT22;28498;54.400;18.566;2024-03-02T08:03:24;8.00;99.90
42365;DHT22;28498;54.400;18.566;2024-03-02T08:05:51;8.10;99.90
42365;DHT22;28498;54.400;18.566;2024-03-02T08:08:19;8.30;99.90
42365;DHT22;28498;54.400;18.566;2024-03-02T08:10:46;8.50;99.90
42365;DHT22;28498;54.400;18.566;2024-03-02T08:13:14;8.40;99.90
42365;DHT22;28498;54.400;18.566;2024-03-02T08:15:41;8.30;99.90
42365;DHT22;28498;54.400;18.566;2024-03-02T08:18:08;8.30;99.90
42365;DHT22;28498;54.400;18.566;2024-03-02T08:20:35;8.40;99.90
42365;DHT22;28498;54.400;18.566;2024-03-02T08:23:02;8.30;99.90
42365;DHT22;28498;54.400;18.566;2024-03-02T08:25:29;8.20;99.90
42365;DHT22;28498;54.400;18.566;2024-03-02T08:27:56;8.30;99.90
42365;DHT22;28498;54.400;18.566;2024-03-02T08:30:24;8.40;99.90
42365;DHT22;28498;54.400;18.566;2024-03-02T08:32:51;8.50;99.90
42365;DHT22;28498;54.400;18.566;2024-03-02T08:35:18;8.60;99.90
42365;DHT22;28498;54.400;18.566;2024-03-02T08:37:45;8.70;99.90
42365;DHT22;28498;54.400;18.566;2024-03-02T08:40:12;8.80;99.90
42365;DHT22;28498;54.400;18.566;2024-03-02T08:42:44;8.80;99.90
42365;DHT22;28498;54.400;18.566;2024-03-02T08:45:12;8.90;99.90
42365;DHT22;28498;54.400;18.566;2024-03-02T08:47:39;8.90;99.90
42365;DHT22;28498;54.400;18.566;2024-03-02T08:50:07;9.10;99.90
42365;DHT22;28498;54.400;18.566;2024-03-02T08:52:35;9.20;99.90
42365;DHT22;28498;54.400;18.566;2024-03-02T08:55:03;9.00;99.90
42365;DHT22;28498;54.400;18.566;2024-03-02T08:57:31;9.00;99.90
42365;DHT22;28498;54.400;18.566;2024-03-02T09:00:00;8.90;99.90
42365;DHT22;28498;54.400;18.566;2024-03-02T09:02:27;8.90;99.90
42365;DHT22;28498;54.400;18.566;2024-03-02T09:04:54;8.80;99.90
42365;DHT22;28498;54.400;18.566;2024-03-02T09:07:21;8.70;99.90
42365;DHT22;28498;54.400;18.566;2024-03-02T09:09:48;8.50;99.90
42365;DHT22;28498;54.400;18.566;2024-03-02T09:12:15;8.60;99.90
42365;DHT22;28498;54.400;18.566;2024-03-02T09:14:42;8.50;99.90
42365;DHT22;28498;54.400;18.566;2024-03-02T09:17:10;8.50;99.90
42365;DHT22;28498;54.400;18.566;2024-03-02T09:19:39;8.70;99.90
42365;DHT22;28498;54.400;18.566;2024-03-02T09:22:06;8.60;99.90
42365;DHT22;28498;54.400;18.566;2024-03-02T09:24:33;8.60;99.90
42365;DHT22;28498;54.400;18.566;2024-03-02T09:27:00;8.60;99.90
42365;DHT22;28498;54.400;18.566;2024-03-02T09:29:27;8.60;99.90
42365;DHT22;28498;54.400;18.566;2024-03-02T09:31:54;8.80;99.90
42365;DHT22;28498;54.400;18.566;2024-03-02T09:34:21;8.80;99.90
42365;DHT22;28498;54.400;18.566;2024-03-02T09:36:51;8.80;99.90
42365;DHT22;28498;54.400;18.566;2024-03-02T09:39:18;9.00;99.90
42365;DHT22;28498;54.400;18.566;2024-03-02T09:41:45;9.00;99.90
42365;DHT22;28498;54.400;18.566;2024-03-02T09:44:14;9.00;99.90
42365;DHT22;28498;54.400;18.566;2024-03-02T09:46:41;9.00;99.90
42365;DHT22;28498;54.400;18.566;2024-03-02T09:49:11;8.90;99.90
42365;DHT22;28498;54.400;18.566;2024-03-02T09:51:39;9.00;99.90
42365;DHT22;28498;54.400;18.566;2024-03-02T09:54:07;8.90;99.90
42365;DHT22;28498;54.400;18.566;2024-03-02T09:56:47;8.80;99.90
42365;DHT22;28498;54.400;18.566;2024-03-02T09:59:14;9.00;99.90
42365;DHT22;28498;54.400;18.566;2024-03-02T10:02:00;9.20;99.90
42365;DHT22;28498;54.400;18.566;2024-03-02T10:04:29;9.20;99.90
42365;DHT22;28498;54.400;18.566;2024-03-02T10:07:16;9.40;99.90
42365;DHT22;28498;54.400;18.566;2024-03-02T10:09:48;9.40;99.90
42365;DHT22;28498;54.400;18.566;2024-03-02T10:12:16;9.30;99.90
42365;DHT22;28498;54.400;18.566;2024-03-02T10:14:44;9.40;99.90
42365;DHT22;28498;54.400;18.566;2024-03-02T10:17:13;9.50;99.90
42365;DHT22;28498;54.400;18.566;2024-03-02T10:19:40;9.60;99.90
42365;DHT22;28498;54.400;18.566;2024-03-02T10:22:10;9.70;99.90
42365;DHT22;28498;54.400;18.566;2024-03-02T10:24:43;9.70;99.90
42365;DHT22;28498;54.400;18.566;2024-03-02T10:27:23;9.80;99.90
42365;DHT22;28498;54.400;18.566;2024-03-02T10:29:50;10.00;99.90
42365;DHT22;28498;54.400;18.566;2024-03-02T10:32:17;9.90;99.90
42365;DHT22;28498;54.400;18.566;2024-03-02T10:34:46;10.00;99.90
42365;DHT22;28498;54.400;18.566;2024-03-02T10:37:15;10.30;99.90
42365;DHT22;28498;54.400;18.566;2024-03-02T10:39:42;10.50;99.90
42365;DHT22;28498;54.400;18.566;2024-03-02T10:42:09;10.50;99.90
42365;DHT22;28498;54.400;18.566;2024-03-02T10:44:37;10.50;99.90
42365;DHT22;28498;54.400;18.566;2024-03-02T10:47:04;10.50;99.90
42365;DHT22;28498;54.400;18.566;2024-03-02T10:49:32;10.60;99.90
42365;DHT22;28498;54.400;18.566;2024-03-02T10:52:00;10.70;99.90
42365;DHT22;28498;54.400;18.566;2024-03-02T10:54:28;10.70;99.90
42365;DHT22;28498;54.400;18.566;2024-03-02T10:57:04;10.60;99.90
42365;DHT22;28498;54.400;18.566;2024-03-02T10:59:35;10.60;99.90
42365;DHT22;28498;54.400;18.566;2024-03-02T11:02:04;10.60;99.90
42365;DHT22;28498;54.400;18.566;2024-03-02T11:04:34;10.80;99.90
42365;DHT22;28498;54.400;18.566;2024-03-02T11:07:05;10.80;99.90
42365;DHT22;28498;54.400;18.566;2024-03-02T11:09:34;11.00;99.90
42365;DHT22;28498;54.400;18.566;2024-03-02T11:12:31;11.20;99.90
42365;DHT22;28498;54.400;18.566;2024-03-02T11:15:00;11.20;99.90
42365;DHT22;28498;54.400;18.566;2024-03-02T11:17:28;11.10;99.90
42365;DHT22;28498;54.400;18.566;2024-03-02T11:19:55;11.10;99.90
42365;DHT22;28498;54.400;18.566;2024-03-02T11:22:22;10.90;99.90
42365;DHT22;28498;54.400;18.566;2024-03-02T11:24:50;11.10;99.90
42365;DHT22;28498;54.400;18.566;2024-03-02T11:33:07;11.20;99.90
42365;DHT22;28498;54.400;18.566;2024-03-02T11:35:46;11.30;99.90
42365;DHT22;28498;54.400;18.566;2024-03-02T11:38:14;11.60;99.90
42365;DHT22;28498;54.400;18.566;2024-03-02T11:40:42;11.60;99.90
42365;DHT22;28498;54.400;18.566;2024-03-02T11:43:09;11.50;99.90
42365;DHT22;28498;54.400;18.566;2024-03-02T11:45:37;11.50;99.90
42365;DHT22;28498;54.400;18.566;2024-03-02T11:48:11;11.40;99.90
42365;DHT22;28498;54.400;18.566;2024-03-02T11:50:42;11.30;99.90
42365;DHT22;28498;54.400;18.566;2024-03-02T11:53:13;11.30;99.90
42365;DHT22;28498;54.400;18.566;2024-03-02T11:55:40;11.40;99.90
42365;DHT22;28498;54.400;18.566;2024-03-02T11:58:08;11.40;99.90
42365;DHT22;28498;54.400;18.566;2024-03-02T12:00:35;11.40;99.90
42365;DHT22;28498;54.400;18.566;2024-03-02T12:03:11;11.40;99.90
42365;DHT22;28498;54.400;18.566;2024-03-02T12:05:39;11.50;99.90
42365;DHT22;28498;54.400;18.566;2024-03-02T12:08:06;11.50;99.90
42365;DHT22;28498;54.400;18.566;2024-03-02T12:10:35;11.40;99.90
42365;DHT22;28498;54.400;18.566;2024-03-02T12:13:04;11.50;99.90
42365;DHT22;28498;54.400;18.566;2024-03-02T12:15:33;11.50;99.90
42365;DHT22;28498;54.400;18.566;2024-03-02T12:18:01;11.50;99.90
42365;DHT22;28498;54.400;18.566;2024-03-02T12:20:30;11.60;99.90
42365;DHT22;28498;54.400;18.566;2024-03-02T12:23:03;11.50;99.90
42365;DHT22;28498;54.400;18.566;2024-03-02T12:25:32;11.50;99.90
42365;DHT22;28498;54.400;18.566;2024-03-02T12:28:02;11.50;99.90
42365;DHT22;28498;54.400;18.566;2024-03-02T12:30:30;11.30;99.90
42365;DHT22;28498;54.400;18.566;2024-03-02T12:32:58;11.30;99.90
42365;DHT22;28498;54.400;18.566;2024-03-02T12:35:25;11.50;99.90
42365;DHT22;28498;54.400;18.566;2024-03-02T12:37:54;11.50;99.90
42365;DHT22;28498;54.400;18.566;2024-03-02T12:40:22;11.50;99.90
42365;DHT22;28498;54.400;18.566;2024-03-02T12:42:50;11.50;99.90
42365;DHT22;28498;54.400;18.566;2024-03-02T12:45:18;11.40;99.90
42365;DHT22;28498;54.400;18.566;2024-03-02T12:47:52;11.50;99.90
42365;DHT22;28498;54.400;18.566;2024-03-02T12:50:20;11.50;99.90
42365;DHT22;28498;54.400;18.566;2024-03-02T12:52:54;11.50;99.90
42365;DHT22;28498;54.400;18.566;2024-03-02T12:55:22;11.30;99.90
42365;DHT22;28498;54.400;18.566;2024-03-02T12:57:51;11.30;99.90
42365;DHT22;28498;54.400;18.566;2024-03-02T13:00:21;11.40;99.90
42365;DHT22;28498;54.400;18.566;2024-03-02T13:02:50;11.40;99.90
42365;DHT22;28498;54.400;18.566;2024-03-02T13:05:19;11.50;99.90
42365;DHT22;28498;54.400;18.566;2024-03-02T13:07:48;11.50;99.90
42365;DHT22;28498;54.400;18.566;2024-03-02T13:10:16;11.60;99.90
42365;DHT22;28498;54.400;18.566;2024-03-02T13:12:45;11.50;99.90
42365;DHT22;28498;54.400;18.566;2024-03-02T13:15:13;11.70;99.90
42365;DHT22;28498;54.400;18.566;2024-03-02T13:17:44;11.60;99.90
42365;DHT22;28498;54.400;18.566;2024-03-02T13:20:13;11.60;99.90
42365;DHT22;28498;54.400;18.566;2024-03-02T13:22:41;11.70;99.90
42365;DHT22;28498;54.400;18.566;2024-03-02T13:25:10;11.80;99.90
42365;DHT22;28498;54.400;18.566;2024-03-02T13:27:37;11.80;99.90
42365;DHT22;28498;54.400;18.566;2024-03-02T13:30:05;11.70;99.90
42365;DHT22;28498;54.400;18.566;2024-03-02T13:32:32;11.70;99.90
42365;DHT22;28498;54.400;18.566;2024-03-02T13:34:59;11.80;99.90
42365;DHT22;28498;54.400;18.566;2024-03-02T13:37:27;11.70;99.90
42365;DHT22;28498;54.400;18.566;2024-03-02T13:39:54;11.60;99.90
42365;DHT22;28498;54.400;18.566;2024-03-02T13:42:21;11.70;99.90
42365;DHT22;28498;54.400;18.566;2024-03-02T13:44:49;11.70;99.90
42365;DHT22;28498;54.400;18.566;2024-03-02T13:47:18;11.80;99.90
42365;DHT22;28498;54.400;18.566;2024-03-02T13:49:45;11.80;99.90
42365;DHT22;28498;54.400;18.566;2024-03-02T13:56:02;12.00;99.90
42365;DHT22;28498;54.400;18.566;2024-03-02T13:58:29;11.90;99.90
42365;DHT22;28498;54.400;18.566;2024-03-02T14:00:57;11.90;99.90
42365;DHT22;28498;54.400;18.566;2024-03-02T14:03:24;11.70;99.90
42365;DHT22;28498;54.400;18.566;2024-03-02T14:05:57;11.80;99.90
42365;DHT22;28498;54.400;18.566;2024-03-02T14:08:24;11.80;99.90
42365;DHT22;28498;54.400;18.566;2024-03-02T14:10:51;11.90;99.90
42365;DHT22;28498;54.400;18.566;2024-03-02T14:13:19;11.70;99.90
42365;DHT22;28498;54.400;18.566;2024-03-02T14:15:46;11.50;99.90
42365;DHT22;28498;54.400;18.566;2024-03-02T14:18:13;11.60;99.90
42365;DHT22;28498;54.400;18.566;2024-03-02T14:20:40;11.50;99.90
42365;DHT22;28498;54.400;18.566;2024-03-02T14:23:11;11.50;99.90
42365;DHT22;28498;54.400;18.566;2024-03-02T14:25:38;11.50;99.90
42365;DHT22;28498;54.400;18.566;2024-03-02T14:28:05;11.50;99.90
42365;DHT22;28498;54.400;18.566;2024-03-02T14:30:52;11.50;99.90
42365;DHT22;28498;54.400;18.566;2024-03-02T14:33:19;11.50;99.90
42365;DHT22;28498;54.400;18.566;2024-03-02T14:35:46;11.50;99.90
42365;DHT22;28498;54.400;18.566;2024-03-02T14:38:14;11.40;99.90
42365;DHT22;28498;54.400;18.566;2024-03-02T14:40:42;11.40;99.90
42365;DHT22;28498;54.400;18.566;2024-03-02T14:43:09;11.20;99.90
42365;DHT22;28498;54.400;18.566;2024-03-02T14:45:37;11.20;99.90
42365;DHT22;28498;54.400;18.566;2024-03-02T14:48:04;11.00;99.90
42365;DHT22;28498;54.400;18.566;2024-03-02T14:50:31;10.90;99.90
42365;DHT22;28498;54.400;18.566;2024-03-02T14:52:59;10.90;99.90
42365;DHT22;28498;54.400;18.566;2024-03-02T14:55:27;10.80;99.90
42365;DHT22;28498;54.400;18.566;2024-03-02T14:57:54;10.80;99.90
42365;DHT22;28498;54.400;18.566;2024-03-02T15:00:21;10.60;99.90
42365;DHT22;28498;54.400;18.566;2024-03-02T15:02:48;10.60;99.90
42365;DHT22;28498;54.400;18.566;2024-03-02T15:05:16;10.50;99.90
42365;DHT22;28498;54.400;18.566;2024-03-02T15:07:43;10.40;99.90
42365;DHT22;28498;54.400;18.566;2024-03-02T15:10:10;10.30;99.90
42365;DHT22;28498;54.400;18.566;2024-03-02T15:12:37;10.30;99.90
42365;DHT22;28498;54.400;18.566;2024-03-02T15:15:05;10.20;99.90
42365;DHT22;28498;54.400;18.566;2024-03-02T15:17:32;10.20;99.90
42365;DHT22;28498;54.400;18.566;2024-03-02T15:19:59;10.20;99.90
42365;DHT22;28498;54.400;18.566;2024-03-02T15:22:26;10.20;99.90
42365;DHT22;28498;54.400;18.566;2024-03-02T15:24:53;10.10;99.90
42365;DHT22;28498;54.400;18.566;2024-03-02T15:27:21;10.00;99.90
42365;DHT22;28498;54.400;18.566;2024-03-02T15:29:48;9.90;99.90
42365;DHT22;28498;54.400;18.566;2024-03-02T15:32:17;9.90;99.90
42365;DHT22;28498;54.400;18.566;2024-03-02T15:38:25;9.90;99.90
42365;DHT22;28498;54.400;18.566;2024-03-02T15:41:00;9.80;99.90
42365;DHT22;28498;54.400;18.566;2024-03-02T15:43:29;9.80;99.90
42365;DHT22;28498;54.400;18.566;2024-03-02T15:45:58;9.80;99.90
42365;DHT22;28498;54.400;18.566;2024-03-02T15:48:25;9.80;99.90
42365;DHT22;28498;54.400;18.566;2024-03-02T15:50:53;9.80;99.90
42365;DHT22;28498;54.400;18.566;2024-03-02T15:53:20;9.80;99.90
42365;DHT22;28498;54.400;18.566;2024-03-02T15:55:48;9.70;99.90